Rocas de Santo Domingo, Chile
Current Conditions -  °F | °C
As of 12:00 PM on Saturday 22 Nov 2014 (Local Time) from SCSN Reporting Station
Broken Clouds Broken Clouds  
Wind Chill: 59°   Ceiling: 25000
Heat Index: 59°   Visibility: 6mi
Dew Point: 52°   Wind: 10mph
Humidity: 77%   Direction: 270°W
Pressure: 30.03"   Gusts: NA
Location:  33.64°S, 71.62°W
Report Text: SCSN 221600Z 27009KT 9999 FEW005 BKN250 15/11 Q1017
Loading
Personal Weather Stations






























Interactive Weather Map New forecast layout! Learn more

10-Day Weather Forecast

Advertisements
Track Severe Weather on mobile